Time;durP1;ratioP1;P1;durP2;ratioP2;P2;SDS_P1;SDS_P2;PMS_P1;PMS_P2;Temp;Humidity;BMP_temperature;BMP_pressure;BME280_temperature;BME280_humidity;BME280_pressure;Samples;Min_cycle;Max_cycle;Signal;HPM_P1;HPM_P2
2022/01/23 00:02:35;;;;;;;6.37;2.45;;;;;;;0.12;49.21;100880.81;4474636;32;32994;-78
2022/01/23 00:05:07;;;;;;;5.90;2.40;;;;;;;0.22;48.78;100879.16;4485840;32;34167;-79
2022/01/23 00:07:36;;;;;;;7.37;2.67;;;;;;;0.05;48.80;100879.56;4485498;32;33253;-78
2022/01/23 00:10:09;;;;;;;6.43;2.13;;;;;;;-0.10;49.53;100886.09;4485569;32;33338;-78
2022/01/23 00:12:47;;;;;;;6.73;2.13;;;;;;;0.22;48.89;100895.38;4472935;32;34533;-78
2022/01/23 00:18:04;;;;;;;6.12;2.40;;;;;;;0.21;48.85;100906.28;4485766;32;33482;-78
2022/01/23 00:20:32;;;;;;;5.63;2.17;;;;;;;0.47;48.01;100905.22;4485748;32;33643;-78
2022/01/23 00:23:11;;;;;;;11.13;4.83;;;;;;;0.35;48.41;100897.16;4484809;32;34125;-78
2022/01/23 00:31:16;;;;;;;;;;;;;;;0.77;47.20;100899.31;4474903;32;33138;-78
2022/01/23 00:33:43;;;;;;;6.40;2.23;;;;;;;0.64;47.57;100909.34;4485726;32;34127;-78
2022/01/23 00:36:12;;;;;;;4.17;2.07;;;;;;;0.67;47.16;100898.28;4485354;32;33969;-78
2022/01/23 00:38:41;;;;;;;6.10;2.10;;;;;;;0.50;47.60;100906.81;4472594;32;33332;-78
2022/01/23 00:41:08;;;;;;;6.70;2.60;;;;;;;0.42;47.67;100899.28;4485191;32;33674;-77
2022/01/23 00:43:40;;;;;;;6.30;2.50;;;;;;;0.59;47.74;100903.44;4472367;32;33662;-78
2022/01/23 00:51:32;;;;;;;6.40;2.57;;;;;;;0.18;48.14;100904.66;4485423;32;33745;-78
2022/01/23 00:54:02;;;;;;;7.03;2.15;;;;;;;0.33;48.06;100914.34;4487042;32;34265;-78
2022/01/23 00:56:33;;;;;;;6.97;2.43;;;;;;;0.31;48.31;100908.19;4487033;32;34357;-78
2022/01/23 00:59:02;;;;;;;7.67;2.80;;;;;;;0.48;48.35;100911.47;4459243;32;32361;-78
2022/01/23 01:01:29;;;;;;;8.20;2.40;;;;;;;0.24;48.86;100906.91;4474369;32;34619;-78
2022/01/23 01:03:58;;;;;;;5.45;2.45;;;;;;;0.34;48.59;100912.50;4487553;32;35420;-78
2022/01/23 01:06:27;;;;;;;4.73;2.20;;;;;;;0.53;48.25;100898.50;4485175;32;34644;-78
2022/01/23 01:09:01;;;;;;;6.40;2.40;;;;;;;0.52;48.00;100902.16;4485375;32;33298;-78
2022/01/23 01:31:12;;;;;;;4.80;2.33;;;;;;;0.28;48.48;100872.47;4485166;32;33525;-78
2022/01/23 01:34:08;;;;;;;6.60;2.10;;;;;;;0.12;48.44;100859.22;4485129;32;34422;-78
2022/01/23 01:39:17;;;;;;;7.53;3.10;;;;;;;0.19;48.40;100871.31;4485459;32;34589;-78
2022/01/23 01:41:45;;;;;;;7.67;2.80;;;;;;;0.12;48.40;100875.44;4472144;32;32836;-78
2022/01/23 01:44:15;;;;;;;8.60;2.58;;;;;;;0.33;48.04;100879.25;4485209;31;34560;-78
2022/01/23 01:46:44;;;;;;;6.67;2.40;;;;;;;0.35;47.92;100875.56;4488113;31;34560;-78
2022/01/23 01:49:14;;;;;;;5.70;2.20;;;;;;;0.33;47.97;100878.38;4474973;31;34860;-78
2022/01/23 01:51:43;;;;;;;7.30;2.17;;;;;;;0.05;48.30;100884.09;4474783;31;33187;-78
2022/01/23 01:54:15;;;;;;;4.83;2.00;;;;;;;-0.15;48.87;100883.72;4474467;31;33049;-78
2022/01/23 01:56:51;;;;;;;5.33;2.00;;;;;;;-0.11;49.12;100900.56;4488393;31;34292;-78
2022/01/23 02:10:07;;;;;;;4.05;1.90;;;;;;;-0.04;48.98;100883.81;4490148;31;34089;-78
2022/01/23 02:54:58;;;;;;;8.70;2.67;;;;;;;0.01;49.69;100878.06;4473481;31;33755;-78
2022/01/23 02:58:14;;;;;;;5.67;2.50;;;;;;;0.08;49.52;100878.47;4487675;31;33283;-78
2022/01/23 03:00:26;;;;;;;6.07;1.97;;;;;;;0.08;49.78;100876.63;4470662;31;32414;-78
2022/01/23 03:03:08;;;;;;;7.13;2.60;;;;;;;-0.09;50.12;100868.94;4488425;31;34934;-78
2022/01/23 03:05:39;;;;;;;6.82;2.25;;;;;;;-0.32;50.48;100870.59;4488153;31;33764;-78
2022/01/23 03:08:27;;;;;;;5.57;2.23;;;;;;;-0.75;52.03;100865.59;4487263;31;33161;-78
2022/01/23 03:11:05;;;;;;;4.50;2.27;;;;;;;-0.80;52.77;100874.97;4463061;31;32070;-78
2022/01/23 03:13:53;;;;;;;7.23;2.50;;;;;;;-0.35;51.56;100877.06;4461951;31;35015;-78
2022/01/23 03:30:02;;;;;;;5.35;2.22;;;;;;;-0.88;53.68;100880.03;4474119;31;31840;-78
2022/01/23 03:32:37;;;;;;;6.40;2.30;;;;;;;-0.31;52.61;100871.47;4474611;31;31881;-78
2022/01/23 03:35:07;;;;;;;5.77;2.10;;;;;;;-0.47;52.60;100879.78;4474141;31;32895;-78
2022/01/23 03:37:34;;;;;;;5.87;2.13;;;;;;;-0.20;51.99;100877.81;4473893;31;34794;-78
2022/01/23 03:40:06;;;;;;;9.60;2.40;;;;;;;0.02;51.57;100885.16;4486278;31;33039;-78
2022/01/23 03:42:40;;;;;;;6.37;2.07;;;;;;;0.30;51.06;100884.87;4486320;31;33795;-78
2022/01/23 03:50:41;;;;;;;6.40;2.57;;;;;;;-0.68;53.05;100874.09;4474883;31;31710;-78
2022/01/23 03:53:13;;;;;;;5.87;2.13;;;;;;;-0.51;52.97;100868.34;4472998;31;33711;-78
2022/01/23 03:55:48;;;;;;;7.33;2.50;;;;;;;-0.61;53.70;100867.28;4500551;31;34411;-77
2022/01/23 03:58:19;;;;;;;8.90;2.40;;;;;;;-0.14;52.07;100858.47;4488482;31;32852;-78
2022/01/23 04:00:47;;;;;;;4.93;2.47;;;;;;;-0.21;52.04;100857.19;4490221;31;34198;-78
2022/01/23 04:03:18;;;;;;;6.70;2.10;;;;;;;-0.17;52.46;100864.09;4488941;31;33745;-77
2022/01/23 04:05:50;;;;;;;7.27;2.70;;;;;;;-0.52;52.75;100858.53;4488938;31;33422;-77
2022/01/23 04:08:19;;;;;;;7.40;2.73;;;;;;;-0.31;53.07;100864.22;4476700;31;32604;-78
2022/01/23 04:10:47;;;;;;;9.63;3.20;;;;;;;-0.01;51.75;100869.25;4488996;31;34131;-78
2022/01/23 04:16:09;;;;;;;9.13;2.33;;;;;;;0.16;51.88;100855.34;4505512;31;34432;-77
2022/01/23 05:00:05;;;;;;;8.27;2.90;;;;;;;1.28;48.69;100880.06;4476748;31;33888;-78
2022/01/23 05:05:29;;;;;;;5.87;2.23;;;;;;;1.04;48.57;100874.72;4490358;31;33983;-78
2022/01/23 05:07:57;;;;;;;5.67;2.83;;;;;;;1.03;48.57;100866.72;4476167;31;34430;-78
2022/01/23 05:10:25;;;;;;;5.77;2.27;;;;;;;0.50;49.32;100869.03;4474243;31;33930;-78
2022/01/23 05:12:53;;;;;;;5.20;2.17;;;;;;;0.44;49.54;100869.47;4474782;31;33624;-78
2022/01/23 05:15:23;;;;;;;5.53;2.40;;;;;;;0.64;49.50;100875.09;4487887;31;33075;-78
2022/01/23 05:17:54;;;;;;;8.20;3.60;;;;;;;0.83;49.11;100870.97;4488098;31;33675;-78
2022/01/23 05:20:25;;;;;;;9.53;3.47;;;;;;;0.70;49.26;100876.44;4474682;31;32933;-78
2022/01/23 05:22:59;;;;;;;7.60;2.40;;;;;;;0.92;49.19;100881.94;4488383;31;33896;-78
2022/01/23 05:25:29;;;;;;;7.00;2.37;;;;;;;0.87;48.74;100894.94;4487407;31;32896;-78
2022/01/23 05:27:59;;;;;;;10.23;2.77;;;;;;;1.03;49.07;100891.06;4475028;31;32648;-78
2022/01/23 05:30:27;;;;;;;6.63;2.50;;;;;;;0.83;49.12;100909.66;4487989;31;35163;-78
2022/01/23 05:32:57;;;;;;;11.83;5.37;;;;;;;0.87;49.14;100910.28;4474517;31;32686;-78
2022/01/23 05:35:28;;;;;;;19.40;6.87;;;;;;;0.84;48.80;100907.81;4474973;31;31669;-77
2022/01/23 05:37:56;;;;;;;11.10;4.30;;;;;;;0.83;49.17;100920.47;4475167;31;33891;-78
2022/01/23 05:40:27;;;;;;;15.07;4.70;;;;;;;0.81;49.56;100911.63;4474732;31;33453;-78
2022/01/23 05:42:57;;;;;;;8.70;3.33;;;;;;;0.95;48.50;100910.56;4487629;31;33984;-78
2022/01/23 05:45:26;;;;;;;7.47;2.97;;;;;;;1.16;48.07;100916.16;4487923;31;33215;-79
2022/01/23 05:47:57;;;;;;;8.80;2.90;;;;;;;0.97;48.06;100924.81;4488342;31;33808;-78
2022/01/23 05:50:28;;;;;;;8.40;3.10;;;;;;;1.15;48.54;100928.81;4487955;31;35408;-78
2022/01/23 05:52:56;;;;;;;12.23;4.20;;;;;;;1.15;48.62;100930.66;4474885;31;32584;-79
2022/01/23 05:55:26;;;;;;;18.50;7.60;;;;;;;1.12;48.72;100929.06;4487984;31;33690;-78
2022/01/23 05:57:54;;;;;;;16.83;6.00;;;;;;;1.04;49.11;100927.91;4487268;31;33591;-78
2022/01/23 06:00:22;;;;;;;14.23;5.10;;;;;;;0.73;49.05;100935.66;4474675;31;32918;-78
2022/01/23 06:02:52;;;;;;;17.23;6.33;;;;;;;0.91;49.41;100942.37;4474508;31;33871;-78
2022/01/23 06:05:24;;;;;;;37.70;12.90;;;;;;;0.99;49.31;100945.34;4475296;31;31687;-80
2022/01/23 06:07:52;;;;;;;43.60;14.80;;;;;;;1.09;48.62;100940.09;4474825;31;33748;-77
2022/01/23 06:10:25;;;;;;;58.70;19.57;;;;;;;0.47;50.17;100948.44;4487797;31;34242;-77
2022/01/23 06:12:56;;;;;;;26.10;8.97;;;;;;;0.50;50.44;100950.03;4462427;31;33457;-77
2022/01/23 06:15:24;;;;;;;23.47;9.80;;;;;;;0.49;50.03;100948.31;4487402;31;34082;-77
2022/01/23 06:17:55;;;;;;;13.63;4.93;;;;;;;0.56;49.79;100952.28;4487686;31;34418;-77
2022/01/23 06:20:29;;;;;;;11.63;4.43;;;;;;;0.53;50.24;100950.66;4486559;31;32994;-77
2022/01/23 06:22:57;;;;;;;8.27;3.00;;;;;;;0.72;50.35;100951.97;4461318;31;32603;-77
2022/01/23 06:25:32;;;;;;;7.47;3.20;;;;;;;0.94;49.65;100954.78;4487584;31;32961;-78
2022/01/23 06:28:04;;;;;;;7.50;3.43;;;;;;;0.79;50.01;100967.62;4501478;31;33722;-77
2022/01/23 06:30:34;;;;;;;9.77;3.90;;;;;;;0.64;50.82;100968.78;4475026;31;34947;-77
2022/01/23 06:33:09;;;;;;;8.13;3.20;;;;;;;0.78;50.34;100965.87;4487927;31;33847;-77
2022/01/23 06:35:39;;;;;;;25.43;10.50;;;;;;;0.99;49.96;100964.28;4487323;31;33962;-82
2022/01/23 06:38:07;;;;;;;17.30;7.10;;;;;;;1.03;49.97;100964.91;4487504;31;34509;-77
2022/01/23 06:40:35;;;;;;;15.23;5.32;;;;;;;1.35;54.80;100962.41;4487048;31;34431;-77
2022/01/23 06:43:03;;;;;;;13.67;6.37;;;;;;;1.22;49.66;100964.34;4474665;31;34253;-77
2022/01/23 06:45:31;;;;;;;14.63;6.05;;;;;;;1.44;49.48;100959.00;4474389;31;33496;-77
2022/01/23 06:47:59;;;;;;;12.75;5.28;;;;;;;1.51;49.27;100962.94;4487474;31;34469;-77
2022/01/23 06:50:33;;;;;;;13.23;6.18;;;;;;;1.46;48.69;100962.44;4475146;31;34520;-77
2022/01/23 06:53:04;;;;;;;14.07;5.55;;;;;;;1.12;49.40;100968.75;4461850;31;32347;-77
2022/01/23 06:55:35;;;;;;;20.00;8.05;;;;;;;1.44;50.03;100969.81;4474877;31;34036;-77
2022/01/23 06:58:05;;;;;;;19.80;7.57;;;;;;;1.39;49.34;100979.25;4474269;31;33811;-83
2022/01/23 07:00:37;;;;;;;18.33;7.95;;;;;;;1.39;49.97;100987.38;4487587;31;34538;-75
2022/01/23 07:03:05;;;;;;;13.25;6.07;;;;;;;1.45;49.77;100982.34;4474294;31;34476;-77
2022/01/23 07:05:40;;;;;;;16.25;6.15;;;;;;;1.63;49.40;100980.91;4473611;31;31692;-78
2022/01/23 07:08:08;;;;;;;9.23;3.87;;;;;;;1.10;49.14;100976.09;4474377;31;33777;-76
2022/01/23 07:10:37;;;;;;;9.83;3.73;;;;;;;1.21;49.70;100984.25;4472318;31;32867;-77
2022/01/23 07:13:07;;;;;;;9.93;4.28;;;;;;;1.43;48.46;100987.00;4473645;31;33019;-77
2022/01/23 07:15:37;;;;;;;29.52;13.13;;;;;;;1.65;48.51;100984.38;4473714;31;33979;-77
2022/01/23 07:18:09;;;;;;;24.97;10.80;;;;;;;1.47;49.72;100983.09;4474284;31;33216;-77
2022/01/23 07:20:38;;;;;;;16.53;6.23;;;;;;;1.65;49.36;100999.75;4461008;31;32890;-77
2022/01/23 07:23:09;;;;;;;29.63;11.70;;;;;;;1.79;48.75;100988.69;4450991;32;32555;-77
2022/01/23 07:25:39;;;;;;;46.80;15.02;;;;;;;1.80;48.83;100992.28;4484769;32;34328;-76
2022/01/23 07:28:11;;;;;;;68.37;21.73;;;;;;;1.30;48.37;100995.22;4458308;32;32722;-76
2022/01/23 07:30:51;;;;;;;9.10;3.67;;;;;;;1.68;50.04;100988.69;4471542;32;35280;-78
2022/01/23 07:33:19;;;;;;;10.43;4.07;;;;;;;1.31;48.69;100991.53;4485128;32;33530;-75
2022/01/23 07:35:52;;;;;;;28.27;9.50;;;;;;;1.22;48.95;100992.25;4460166;32;34012;-75
2022/01/23 07:38:20;;;;;;;37.55;12.07;;;;;;;1.77;48.14;101000.63;4471652;32;34548;-75
2022/01/23 07:41:01;;;;;;;29.15;8.75;;;;;;;1.44;50.30;100983.34;4485635;32;35736;-76
2022/01/23 07:43:31;;;;;;;10.27;3.53;;;;;;;1.09;50.98;100985.19;4473357;32;33614;-76
2022/01/23 07:46:07;;;;;;;37.63;10.27;;;;;;;1.57;49.50;100989.50;4473639;32;34218;-77
2022/01/23 07:48:37;;;;;;;30.97;8.10;;;;;;;1.57;49.13;100988.66;4460211;32;32222;-76
2022/01/23 07:51:05;;;;;;;10.73;3.97;;;;;;;1.85;49.17;100990.94;4472679;32;32754;-76
2022/01/23 07:53:36;;;;;;;35.10;10.88;;;;;;;1.60;48.83;100989.28;4473110;32;34733;-76
2022/01/23 07:56:06;;;;;;;30.77;9.15;;;;;;;1.76;48.67;100997.06;4473076;32;33479;-76
2022/01/23 07:58:52;;;;;;;32.25;9.10;;;;;;;1.87;48.55;101004.34;4487085;32;32693;-76
2022/01/23 08:01:23;;;;;;;18.30;5.75;;;;;;;1.89;48.47;100996.97;4472566;32;33063;-76
2022/01/23 08:03:52;;;;;;;21.30;6.03;;;;;;;2.20;48.50;100996.22;4473121;32;33635;-77
2022/01/23 08:06:23;;;;;;;44.17;10.80;;;;;;;2.23;49.01;101000.53;4485622;31;34065;-76
2022/01/23 08:08:53;;;;;;;42.88;13.07;;;;;;;2.56;47.78;101005.06;4485789;32;33979;-76
2022/01/23 08:11:22;;;;;;;20.10;5.85;;;;;;;2.07;48.57;101010.84;4472838;32;34242;-75
2022/01/23 08:13:57;;;;;;;12.32;4.07;;;;;;;2.21;48.42;101003.34;4486684;32;34064;-76
2022/01/23 08:16:28;;;;;;;47.62;15.35;;;;;;;2.42;48.25;101006.19;4472841;32;33950;-76
2022/01/23 08:19:01;;;;;;;;;;;;;;;2.40;48.36;100999.16;4460567;32;32137;-76
2022/01/23 08:21:33;;;;;;;36.90;12.57;;;;;;;2.47;48.13;101009.38;4472510;32;34568;-76
2022/01/23 08:24:08;;;;;;;24.95;7.82;;;;;;;2.56;48.61;101007.78;4473372;32;33986;-76
2022/01/23 08:26:38;;;;;;;23.38;8.02;;;;;;;2.75;48.09;101016.09;4472194;32;32417;-76
2022/01/23 08:29:07;;;;;;;28.90;8.25;;;;;;;2.28;48.87;101014.56;4459254;32;31328;-76
2022/01/23 08:31:38;;;;;;;32.60;10.60;;;;;;;2.37;49.29;101030.06;4459538;32;34594;-76
2022/01/23 08:34:10;;;;;;;18.62;5.05;;;;;;;2.70;48.35;101017.44;4486105;32;34756;-76
2022/01/23 08:36:42;;;;;;;13.98;4.90;;;;;;;2.81;47.63;101023.72;4459263;32;32264;-76
2022/01/23 08:39:12;;;;;;;12.32;3.97;;;;;;;2.77;46.97;101027.66;4472290;32;32056;-76
2022/01/23 08:41:51;;;;;;;9.32;3.92;;;;;;;2.53;47.22;101032.41;4472718;32;35085;-76
2022/01/23 08:44:23;;;;;;;14.27;5.10;;;;;;;2.39;46.76;101038.94;4484386;31;34060;-76
2022/01/23 08:46:51;;;;;;;16.85;5.47;;;;;;;2.96;46.07;101041.44;4446420;32;31870;-76
2022/01/23 08:49:27;;;;;;;15.00;4.53;;;;;;;2.82;46.80;101044.41;4472580;32;34651;-76
2022/01/23 08:51:57;;;;;;;8.68;3.78;;;;;;;3.11;46.29;101030.31;4459606;32;33875;-76
2022/01/23 08:54:31;;;;;;;10.55;3.47;;;;;;;2.95;46.34;101033.41;4472673;32;33936;-76
2022/01/23 08:56:59;;;;;;;8.18;2.97;;;;;;;3.08;46.14;101022.41;4459298;32;32633;-76
2022/01/23 08:59:29;;;;;;;9.00;3.45;;;;;;;2.82;45.81;101021.88;4472183;32;32707;-76
2022/01/23 09:02:07;;;;;;;10.15;3.95;;;;;;;2.94;46.33;101029.00;4473275;32;33310;-76
2022/01/23 09:04:38;;;;;;;;;;;;;;;2.92;46.51;101034.53;4460549;32;34571;-76
2022/01/23 09:07:08;;;;;;;9.07;3.92;;;;;;;3.12;46.13;101037.44;4472180;32;32024;-76
2022/01/23 09:09:41;;;;;;;30.08;12.32;;;;;;;3.25;45.69;101032.72;4459193;32;33570;-76
2022/01/23 09:14:38;;;;;;;16.55;8.35;;;;;;;2.84;45.99;101050.56;4471765;32;34377;-76
2022/01/23 09:17:06;;;;;;;13.13;4.85;;;;;;;3.06;46.08;101059.66;4485103;32;34200;-76
2022/01/23 09:19:39;;;;;;;9.05;3.30;;;;;;;2.69;46.81;101057.25;4478212;31;34632;-75
2022/01/23 09:22:06;;;;;;;13.07;4.32;;;;;;;2.40;47.25;101050.63;4473912;31;34514;-76
2022/01/23 09:24:41;;;;;;;10.38;4.57;;;;;;;2.90;46.63;101044.66;4498952;31;34091;-76
2022/01/23 09:27:19;;;;;;;8.82;3.20;;;;;;;2.62;47.28;101051.47;4472662;31;31554;-76
2022/01/23 09:29:54;;;;;;;8.90;3.47;;;;;;;2.53;47.35;101049.53;4487892;31;34301;-76
2022/01/23 09:32:26;;;;;;;11.40;4.37;;;;;;;3.08;46.33;101053.13;4485146;31;35531;-77
2022/01/23 09:34:59;;;;;;;11.32;4.78;;;;;;;2.88;46.52;101053.91;4486641;31;33857;-76
2022/01/23 09:37:27;;;;;;;14.05;6.75;;;;;;;3.07;46.94;101048.69;4473206;31;31614;-76
2022/01/23 09:40:05;;;;;;;11.30;5.72;;;;;;;2.85;47.41;101049.59;4473980;31;34477;-76
2022/01/23 09:42:43;;;;;;;10.90;4.75;;;;;;;2.59;48.10;101050.87;4459469;31;32970;-76
2022/01/23 09:45:16;;;;;;;10.10;4.62;;;;;;;2.67;48.30;101047.50;4472861;31;32355;-76
2022/01/23 09:47:49;;;;;;;9.70;3.83;;;;;;;3.08;47.51;101047.69;4470635;31;32412;-76
2022/01/23 09:50:19;;;;;;;9.90;4.80;;;;;;;2.85;47.93;101055.00;4497639;31;33633;-76
2022/01/23 09:52:51;;;;;;;10.88;4.25;;;;;;;3.12;47.06;101054.59;4479748;31;34267;-76
2022/01/23 09:55:26;;;;;;;;;;;;;;;3.36;46.87;101042.62;4481013;31;34267;-76
2022/01/23 09:57:57;;;;;;;7.97;3.50;;;;;;;3.20;47.28;101052.09;4487163;31;33411;-76
2022/01/23 10:00:30;;;;;;;10.50;4.30;;;;;;;2.97;47.23;101051.28;4499029;31;33782;-77
2022/01/23 10:03:00;;;;;;;8.98;4.75;;;;;;;3.20;47.33;101049.38;4499772;31;34607;-77
2022/01/23 10:05:29;;;;;;;13.52;6.22;;;;;;;3.41;46.92;101049.41;4488248;31;33794;-76
2022/01/23 10:07:57;;;;;;;15.85;6.55;;;;;;;3.24;47.37;101044.56;4472975;31;33276;-77
2022/01/23 10:10:31;;;;;;;11.57;5.50;;;;;;;3.52;47.24;101037.63;4472616;31;33651;-76
2022/01/23 10:13:01;;;;;;;11.63;5.43;;;;;;;3.39;47.56;101043.25;4486435;31;35200;-77
2022/01/23 10:15:32;;;;;;;10.05;4.80;;;;;;;3.38;47.38;101037.94;4458730;31;32815;-76
2022/01/23 10:18:02;;;;;;;9.40;4.35;;;;;;;3.56;46.95;101045.38;4487766;31;33229;-76
2022/01/23 10:20:33;;;;;;;12.60;4.40;;;;;;;3.61;46.60;101045.84;4487599;31;34435;-76
2022/01/23 10:23:00;;;;;;;37.67;16.37;;;;;;;3.44;46.47;101041.00;4486817;31;35160;-76
2022/01/23 10:25:33;;;;;;;36.67;20.15;;;;;;;2.91;46.96;101038.25;4486949;31;34706;-77
2022/01/23 10:28:07;;;;;;;16.15;8.23;;;;;;;3.00;48.39;101038.47;4460797;31;32775;-76
2022/01/23 10:30:40;;;;;;;12.43;5.68;;;;;;;2.87;47.62;101041.31;4486220;31;34527;-76
2022/01/23 10:33:39;;;;;;;14.23;6.15;;;;;;;3.37;47.20;101036.22;4469962;31;32956;-76
2022/01/23 10:36:08;;;;;;;12.07;5.60;;;;;;;3.04;48.49;101034.50;4491716;31;34120;-76
2022/01/23 10:39:01;;;;;;;12.45;5.20;;;;;;;3.06;48.43;101044.25;4486565;31;31887;-76
2022/01/23 10:49:53;;;;;;;12.80;6.03;;;;;;;3.78;47.57;101041.69;4482792;32;33239;-76
2022/01/23 10:52:40;;;;;;;10.07;4.80;;;;;;;3.81;47.57;101029.72;4469908;32;32280;-76
2022/01/23 10:55:13;;;;;;;10.88;5.05;;;;;;;3.73;47.43;101035.81;4469515;32;34471;-76
2022/01/23 10:57:45;;;;;;;10.70;4.97;;;;;;;4.00;47.08;101032.53;4481695;32;33638;-75
2022/01/23 11:00:33;;;;;;;9.55;4.60;;;;;;;3.86;46.87;101024.75;4444766;32;32120;-76
2022/01/23 11:03:22;;;;;;;13.68;6.35;;;;;;;3.55;47.25;101037.37;4456995;32;32344;-75
2022/01/23 11:05:56;;;;;;;12.70;5.80;;;;;;;4.10;47.29;101024.44;4468427;32;34953;-76
2022/01/23 11:08:30;;;;;;;12.50;5.53;;;;;;;3.84;48.34;101018.59;4441855;32;33927;-76
2022/01/23 11:11:10;;;;;;;12.73;5.00;;;;;;;3.24;48.15;101031.84;4461054;32;34035;-76
2022/01/23 11:19:35;;;;;;;13.77;5.65;;;;;;;3.93;47.09;101025.91;4469435;32;33857;-76
2022/01/23 11:22:10;;;;;;;15.35;6.07;;;;;;;3.84;46.50;101024.88;4454761;32;32804;-76
2022/01/23 11:24:45;;;;;;;14.32;5.60;;;;;;;3.96;46.52;101028.34;4442886;32;32714;-76
2022/01/23 11:27:23;;;;;;;14.52;6.43;;;;;;;4.03;46.55;101034.97;4455981;32;35341;-76
2022/01/23 11:30:04;;;;;;;15.93;6.60;;;;;;;3.97;46.90;101025.50;4442414;32;32523;-76
2022/01/23 11:32:39;;;;;;;9.32;4.72;;;;;;;3.99;46.33;101022.66;4441293;32;31839;-77
2022/01/23 11:35:19;;;;;;;11.48;4.57;;;;;;;4.11;45.86;101032.44;4454276;32;33518;-76
2022/01/23 11:37:50;;;;;;;12.95;5.55;;;;;;;3.87;46.58;101026.47;4453811;32;34179;-76
2022/01/23 11:54:16;;;;;;;12.20;6.47;;;;;;;3.68;48.36;101024.47;4458544;32;32074;-76
2022/01/23 11:56:48;;;;;;;14.95;6.30;;;;;;;3.63;48.50;101016.72;4470254;32;32615;-76
2022/01/23 11:59:39;;;;;;;17.23;5.75;;;;;;;3.46;49.13;101020.03;4483751;32;35220;-76
2022/01/23 12:02:36;;;;;;;9.55;5.10;;;;;;;3.07;49.66;101015.28;4458230;32;33610;-76
2022/01/23 12:07:41;;;;;;;11.32;4.85;;;;;;;3.12;49.68;101011.19;4484409;31;32124;-76
2022/01/23 12:10:29;;;;;;;11.52;5.62;;;;;;;2.81;50.48;101012.87;4470415;31;35134;-76
2022/01/23 12:17:01;;;;;;;10.40;4.85;;;;;;;2.60;50.96;101009.25;4467905;31;33289;-76
2022/01/23 12:19:58;;;;;;;11.00;5.43;;;;;;;2.81;50.43;101004.75;4469278;31;32546;-76
2022/01/23 12:22:36;;;;;;;12.25;5.25;;;;;;;3.23;49.95;100997.59;4501922;31;34619;-76
2022/01/23 12:25:20;;;;;;;11.30;5.40;;;;;;;2.77;50.49;100997.00;4487562;31;33836;-76
2022/01/23 12:28:10;;;;;;;12.75;4.82;;;;;;;3.04;50.17;101008.25;4500261;31;33076;-76
2022/01/23 12:30:46;;;;;;;12.15;5.90;;;;;;;2.96;49.88;101000.75;4487381;31;33942;-76
2022/01/23 12:33:21;;;;;;;14.55;6.68;;;;;;;3.00;50.38;100992.38;4473821;31;34426;-76
2022/01/23 12:35:58;;;;;;;21.10;8.73;;;;;;;2.73;50.69;100982.81;4487205;31;32312;-76
2022/01/23 12:38:29;;;;;;;28.30;11.02;;;;;;;2.95;50.49;101001.75;4472417;31;33365;-76
2022/01/23 12:41:23;;;;;;;26.55;11.90;;;;;;;2.96;49.69;100992.63;4487238;31;33973;-76
2022/01/23 12:44:20;;;;;;;21.27;10.60;;;;;;;3.13;49.56;100993.91;4486616;31;32711;-76
2022/01/23 12:46:53;;;;;;;22.50;11.68;;;;;;;3.36;49.62;100991.94;4493751;31;33710;-77
2022/01/23 12:49:29;;;;;;;13.02;7.32;;;;;;;3.60;49.08;100987.13;4473833;31;31854;-76
2022/01/23 12:52:06;;;;;;;15.70;7.28;;;;;;;3.60;47.37;100984.41;4472071;31;32179;-76
2022/01/23 12:54:36;;;;;;;15.90;6.60;;;;;;;3.78;47.13;100981.97;4499353;31;34243;-76
2022/01/23 12:57:15;;;;;;;13.15;6.18;;;;;;;3.79;45.69;100986.41;4485221;31;32667;-76
2022/01/23 12:59:57;;;;;;;30.45;11.95;;;;;;;3.54;46.78;100990.38;4487245;31;33416;-76
2022/01/23 13:02:29;;;;;;;12.25;4.47;;;;;;;3.28;45.71;100989.03;4487979;31;34380;-76
2022/01/23 13:05:01;;;;;;;12.02;4.55;;;;;;;3.52;45.11;100989.66;4475343;31;33884;-76
2022/01/23 13:18:36;;;;;;;10.25;3.28;;;;;;;3.78;44.50;100991.97;4476094;31;33318;-75
2022/01/23 13:26:28;;;;;;;;;;;;;;;3.61;44.71;100993.41;4490463;31;33868;-75
2022/01/23 13:35:07;;;;;;;12.18;4.62;;;;;;;3.64;44.05;100996.72;4487478;31;34466;-75
2022/01/23 13:37:39;;;;;;;10.00;4.75;;;;;;;3.70;44.32;100991.75;4488667;31;34503;-75
2022/01/23 13:40:15;;;;;;;15.45;7.72;;;;;;;3.70;44.28;100994.47;4461983;31;33233;-76
2022/01/23 14:04:31;;;;;;;13.73;5.43;;;;;;;4.40;43.06;101007.28;4474656;31;32167;-76
2022/01/23 14:06:59;;;;;;;11.77;7.03;;;;;;;4.44;43.21;101006.87;4487442;31;33620;-77
2022/01/23 14:09:36;;;;;;;12.85;5.53;;;;;;;4.56;43.54;100999.44;4474779;31;34372;-77
2022/01/23 14:12:13;;;;;;;13.48;5.85;;;;;;;4.64;43.66;100996.87;4461494;31;32288;-76
2022/01/23 14:14:49;;;;;;;;;;;;;;;4.21;43.79;100995.31;4474522;31;32772;-76
2022/01/23 14:17:25;;;;;;;12.25;5.18;;;;;;;4.56;43.81;100996.72;4474455;31;33420;-77
2022/01/23 14:20:00;;;;;;;10.02;5.10;;;;;;;4.44;43.07;101003.28;4487479;31;35225;-77
2022/01/23 14:22:34;;;;;;;12.55;5.47;;;;;;;4.25;42.87;101004.94;4474709;31;34660;-76
2022/01/23 14:25:18;;;;;;;12.93;4.82;;;;;;;4.36;42.90;100997.69;4487523;31;33204;-76
2022/01/23 14:28:07;;;;;;;15.13;5.07;;;;;;;4.28;43.57;101007.38;4474388;31;31894;-77
2022/01/23 14:30:53;;;;;;;19.73;7.47;;;;;;;4.03;44.08;100999.66;4474303;31;34366;-76
2022/01/23 14:33:32;;;;;;;9.90;4.50;;;;;;;4.33;43.36;101006.97;4487635;31;33944;-76
2022/01/23 14:36:31;;;;;;;8.13;3.60;;;;;;;4.21;43.48;101011.62;4489677;31;32393;-76
2022/01/23 14:39:09;;;;;;;14.35;5.37;;;;;;;4.43;42.78;101018.75;4488182;31;33710;-77
2022/01/23 14:41:42;;;;;;;10.05;4.53;;;;;;;4.33;42.64;101017.84;4474986;31;34309;-75
2022/01/23 14:44:20;;;;;;;9.73;4.28;;;;;;;4.26;43.36;101025.66;4486596;31;33737;-78
2022/01/23 14:46:53;;;;;;;9.15;4.03;;;;;;;3.98;43.88;101019.06;4473761;31;34389;-76
2022/01/23 14:49:24;;;;;;;8.25;3.83;;;;;;;4.16;43.62;101032.03;4483998;31;34384;-76
2022/01/23 14:51:53;;;;;;;7.70;3.35;;;;;;;4.37;43.63;101029.28;4486239;31;35200;-74
2022/01/23 14:54:26;;;;;;;9.98;3.53;;;;;;;4.43;43.57;101031.47;4470727;31;34541;-76
2022/01/23 14:56:53;;;;;;;13.95;5.45;;;;;;;4.43;43.95;101040.47;4472245;31;32069;-76
2022/01/23 14:59:24;;;;;;;11.75;4.60;;;;;;;4.48;43.27;101040.06;4471953;31;33648;-76
2022/01/23 15:01:55;;;;;;;11.88;4.72;;;;;;;4.48;42.94;101040.06;4485743;31;35279;-76
2022/01/23 15:04:26;;;;;;;12.05;5.50;;;;;;;4.37;43.94;101040.16;4484427;31;34770;-75
2022/01/23 15:06:56;;;;;;;14.30;6.00;;;;;;;4.57;43.20;101059.12;4471979;31;33190;-76
2022/01/23 15:09:34;;;;;;;11.90;5.87;;;;;;;4.18;44.21;101057.22;4472615;31;32350;-76
2022/01/23 15:12:05;;;;;;;11.80;5.85;;;;;;;4.27;44.06;101050.97;4484016;31;35495;-76
2022/01/23 15:14:33;;;;;;;13.75;5.72;;;;;;;4.13;44.52;101054.91;4458676;31;33948;-76
2022/01/23 15:17:03;;;;;;;11.93;5.85;;;;;;;4.13;44.69;101052.19;4483824;31;33409;-76
2022/01/23 15:19:32;;;;;;;15.77;6.80;;;;;;;4.20;44.85;101058.81;4485360;31;33770;-76
2022/01/23 15:22:00;;;;;;;16.33;7.68;;;;;;;4.27;44.82;101064.56;4483229;31;34568;-76
2022/01/23 15:24:29;;;;;;;17.83;6.85;;;;;;;4.30;45.09;101061.59;4493301;31;33848;-76
2022/01/23 15:26:58;;;;;;;18.62;7.62;;;;;;;4.23;45.20;101074.84;4470247;31;33409;-75
2022/01/23 15:29:27;;;;;;;16.95;7.70;;;;;;;4.23;45.33;101073.97;4471225;31;34641;-76
2022/01/23 15:31:54;;;;;;;21.23;9.23;;;;;;;4.15;45.49;101060.22;4471317;31;34351;-76
2022/01/23 15:34:24;;;;;;;21.45;8.75;;;;;;;4.07;45.50;101073.59;4491226;31;34089;-76
2022/01/23 15:36:55;;;;;;;15.75;8.05;;;;;;;4.02;45.88;101063.13;4471624;31;31804;-76
2022/01/23 15:39:26;;;;;;;20.55;8.80;;;;;;;4.15;45.26;101071.94;4485733;31;33867;-76
2022/01/23 15:41:56;;;;;;;19.62;9.43;;;;;;;3.93;45.59;101072.06;4486970;31;35195;-76
2022/01/23 15:44:24;;;;;;;19.37;9.40;;;;;;;3.83;45.86;101068.47;4500586;31;33783;-76
2022/01/23 15:46:52;;;;;;;21.95;9.65;;;;;;;3.79;45.69;101067.00;4474494;31;33350;-76
2022/01/23 15:49:20;;;;;;;15.55;8.35;;;;;;;3.84;45.75;101072.91;4461291;31;32041;-75
2022/01/23 15:51:47;;;;;;;16.08;7.80;;;;;;;3.55;46.24;101080.81;4472188;31;35101;-76
2022/01/23 15:54:19;;;;;;;15.98;7.00;;;;;;;3.58;46.05;101085.97;4463041;31;32632;-75